createdAt,value
2018-05-18T00:00:09.329Z,68.30
2018-05-18T00:00:42.606Z,68.40
2018-05-18T00:01:15.881Z,68.40
2018-05-18T00:01:49.144Z,68.30
2018-05-18T00:02:22.420Z,68.30
2018-05-18T00:02:56.302Z,68.30
2018-05-18T00:03:29.557Z,68.40
2018-05-18T00:04:03.613Z,68.30
2018-05-18T00:04:36.917Z,68.30
2018-05-18T00:05:10.201Z,68.30
2018-05-18T00:05:43.476Z,68.50
2018-05-18T00:06:16.756Z,68.40
2018-05-18T00:06:50.031Z,68.60
2018-05-18T00:07:23.307Z,68.60
2018-05-18T00:07:56.572Z,68.80
2018-05-18T00:08:29.841Z,69.00
2018-05-18T00:09:03.116Z,69.00
2018-05-18T00:09:36.404Z,69.20
2018-05-18T00:10:09.664Z,69.70
2018-05-18T00:10:43.709Z,69.00
2018-05-18T00:11:17.749Z,69.20
2018-05-18T00:11:51.816Z,69.30
2018-05-18T00:12:25.108Z,69.30
2018-05-18T00:12:58.370Z,69.30
2018-05-18T00:13:31.645Z,69.20
2018-05-18T00:14:04.929Z,69.40
2018-05-18T00:14:38.190Z,69.30
2018-05-18T00:15:11.451Z,69.40
2018-05-18T00:15:44.723Z,69.40
2018-05-18T00:16:17.993Z,69.40
2018-05-18T00:16:51.272Z,69.40
2018-05-18T00:17:24.557Z,69.10
2018-05-18T00:17:57.829Z,69.10
2018-05-18T00:18:31.092Z,69.20
2018-05-18T00:19:05.124Z,69.10
2018-05-18T00:19:38.417Z,69.10
2018-05-18T00:20:26.582Z,69.10
2018-05-18T00:20:59.859Z,69.10
2018-05-18T00:21:33.144Z,69.00
2018-05-18T00:22:06.422Z,69.10
2018-05-18T00:22:39.697Z,69.50
2018-05-18T00:23:12.974Z,69.40
2018-05-18T00:23:46.239Z,69.50
2018-05-18T00:24:20.268Z,69.70
2018-05-18T00:24:53.538Z,69.70
2018-05-18T00:25:26.800Z,69.70
2018-05-18T00:26:00.065Z,69.50
2018-05-18T00:26:33.353Z,69.50
2018-05-18T00:27:06.643Z,69.60
2018-05-18T00:27:39.983Z,69.70
2018-05-18T00:28:13.252Z,69.60
2018-05-18T00:28:47.284Z,69.70
2018-05-18T00:29:20.562Z,69.70
2018-05-18T00:29:53.836Z,69.80
2018-05-18T00:30:27.093Z,69.80
2018-05-18T00:31:01.115Z,70.00
2018-05-18T00:31:34.393Z,70.00
2018-05-18T00:32:07.693Z,70.00
2018-05-18T00:32:40.944Z,70.20
2018-05-18T00:33:14.208Z,70.20
2018-05-18T00:33:48.241Z,70.10
2018-05-18T00:34:21.509Z,70.10
2018-05-18T00:34:54.776Z,70.00
2018-05-18T00:35:28.044Z,69.90
2018-05-18T00:36:01.353Z,70.00
2018-05-18T00:36:34.615Z,70.00
2018-05-18T00:37:07.900Z,70.00
2018-05-18T00:37:41.187Z,70.20
2018-05-18T00:38:14.456Z,69.90
2018-05-18T00:38:47.721Z,70.10
2018-05-18T00:39:21.757Z,70.00
2018-05-18T00:39:55.022Z,70.00
2018-05-18T00:40:28.280Z,70.10
2018-05-18T00:41:02.319Z,70.00
2018-05-18T00:41:35.594Z,70.00
2018-05-18T00:42:08.876Z,69.90
2018-05-18T00:42:42.153Z,69.90
2018-05-18T00:43:15.419Z,69.90
2018-05-18T00:43:48.694Z,69.80
2018-05-18T00:44:21.970Z,69.70
2018-05-18T00:44:55.244Z,69.70
2018-05-18T00:45:29.276Z,69.80
2018-05-18T00:46:02.553Z,69.80
2018-05-18T00:46:35.823Z,69.90
2018-05-18T00:47:09.102Z,69.80
2018-05-18T00:47:42.380Z,69.90
2018-05-18T00:48:15.658Z,70.20
2018-05-18T00:48:48.932Z,70.10
2018-05-18T00:49:22.203Z,70.20
2018-05-18T00:49:55.495Z,70.20
2018-05-18T00:50:28.769Z,70.30
2018-05-18T00:51:02.054Z,70.20
2018-05-18T00:51:35.323Z,70.20
2018-05-18T00:52:08.604Z,70.10
2018-05-18T00:52:42.646Z,70.10
2018-05-18T00:53:15.910Z,70.10
2018-05-18T00:53:49.180Z,70.10
2018-05-18T00:54:22.437Z,70.10
2018-05-18T00:54:55.740Z,70.20
2018-05-18T00:55:40.755Z,70.20
2018-05-18T00:56:14.031Z,70.40
2018-05-18T00:56:47.294Z,70.50
2018-05-18T00:57:20.571Z,70.60
2018-05-18T00:57:53.849Z,70.70
2018-05-18T00:58:27.125Z,70.70
2018-05-18T00:59:00.379Z,70.70
2018-05-18T00:59:33.654Z,70.80
2018-05-18T01:00:06.924Z,70.50
2018-05-18T01:00:40.207Z,70.50
2018-05-18T01:01:13.473Z,70.50
2018-05-18T01:01:46.753Z,70.70
2018-05-18T01:02:20.819Z,70.60
2018-05-18T01:02:54.076Z,70.60
2018-05-18T01:03:27.352Z,70.80
2018-05-18T01:04:00.624Z,70.80
2018-05-18T01:04:34.065Z,70.90
2018-05-18T01:05:07.327Z,71.10
2018-05-18T01:05:40.606Z,71.10
2018-05-18T01:06:13.864Z,71.10
2018-05-18T01:06:47.137Z,71.00
2018-05-18T01:07:20.417Z,71.20
2018-05-18T01:07:53.750Z,71.00
2018-05-18T01:08:27.029Z,71.00
2018-05-18T01:09:01.081Z,71.00
2018-05-18T01:09:34.356Z,71.00
2018-05-18T01:10:07.637Z,70.80
2018-05-18T01:10:40.949Z,71.10
2018-05-18T01:11:14.217Z,71.00
2018-05-18T01:11:47.477Z,71.00
2018-05-18T01:12:20.758Z,70.80
2018-05-18T01:12:54.024Z,70.80
2018-05-18T01:13:27.292Z,70.80
2018-05-18T01:14:00.558Z,70.90
2018-05-18T01:14:34.598Z,71.00
2018-05-18T01:15:07.860Z,71.00
2018-05-18T01:15:41.132Z,70.90
2018-05-18T01:16:14.402Z,70.80
2018-05-18T01:16:48.456Z,70.90
2018-05-18T01:17:21.740Z,70.90
2018-05-18T01:17:55.031Z,71.10
2018-05-18T01:18:29.051Z,71.10
2018-05-18T01:19:03.080Z,71.20
2018-05-18T01:19:36.353Z,71.10
2018-05-18T01:20:09.616Z,71.10
2018-05-18T01:20:42.876Z,71.20
2018-05-18T01:21:16.183Z,71.10
2018-05-18T01:21:49.466Z,71.10
2018-05-18T01:22:22.759Z,71.00
2018-05-18T01:22:56.028Z,70.90
2018-05-18T01:23:29.315Z,70.90
2018-05-18T01:24:02.577Z,70.90
2018-05-18T01:24:35.868Z,70.90
2018-05-18T01:25:09.136Z,70.90
2018-05-18T01:25:42.423Z,71.20
2018-05-18T01:26:15.696Z,71.40
2018-05-18T01:26:48.968Z,71.20
2018-05-18T01:27:23.032Z,71.20
2018-05-18T01:27:56.291Z,71.10
2018-05-18T01:28:29.572Z,71.10
2018-05-18T01:29:02.873Z,71.10
2018-05-18T01:29:36.129Z,71.40
2018-05-18T01:30:09.402Z,71.50
2018-05-18T01:30:42.659Z,71.50
2018-05-18T01:31:15.925Z,71.50
2018-05-18T01:31:49.244Z,71.60
2018-05-18T01:32:22.516Z,71.50
2018-05-18T01:32:55.809Z,71.60
2018-05-18T01:33:29.080Z,71.60
2018-05-18T01:34:02.340Z,71.50
2018-05-18T01:34:35.620Z,71.60
2018-05-18T01:35:08.903Z,71.50
2018-05-18T01:35:42.180Z,71.40
2018-05-18T01:36:15.836Z,71.40
2018-05-18T01:36:49.069Z,71.50
2018-05-18T01:37:22.337Z,71.50
2018-05-18T01:37:55.615Z,71.50
2018-05-18T01:38:28.892Z,71.60
2018-05-18T01:39:02.161Z,71.50
2018-05-18T01:39:36.188Z,71.70
2018-05-18T01:40:09.461Z,71.70
2018-05-18T01:40:42.746Z,72.00
2018-05-18T01:41:16.029Z,72.00
2018-05-18T01:41:49.294Z,72.00
2018-05-18T01:42:22.569Z,72.30
2018-05-18T01:42:55.868Z,72.40
2018-05-18T01:43:29.133Z,72.20
2018-05-18T01:44:02.415Z,72.20
2018-05-18T01:44:35.694Z,72.20
2018-05-18T01:45:08.965Z,72.10
2018-05-18T01:45:43.008Z,72.00
2018-05-18T01:46:16.281Z,72.00
2018-05-18T01:46:49.557Z,71.90
2018-05-18T01:47:22.828Z,71.90
2018-05-18T01:47:56.118Z,71.80
2018-05-18T01:48:29.391Z,71.70
2018-05-18T01:49:02.661Z,71.90
2018-05-18T01:49:35.920Z,71.90
2018-05-18T01:50:09.200Z,71.90
2018-05-18T01:50:43.272Z,72.00
2018-05-18T01:51:17.304Z,72.10
2018-05-18T01:51:50.576Z,72.00
2018-05-18T01:52:24.616Z,72.10
2018-05-18T01:52:57.890Z,72.10
2018-05-18T01:53:31.157Z,72.10
2018-05-18T01:54:04.440Z,72.10
2018-05-18T01:54:37.716Z,72.20
2018-05-18T01:55:10.985Z,72.20
2018-05-18T01:55:44.260Z,72.10
2018-05-18T01:56:17.545Z,72.20
2018-05-18T01:56:50.810Z,72.30
2018-05-18T01:57:24.846Z,72.30
2018-05-18T01:57:58.133Z,72.20
2018-05-18T01:58:31.395Z,72.20
2018-05-18T01:59:04.665Z,72.40
2018-05-18T01:59:37.928Z,72.30
2018-05-18T02:00:11.984Z,72.70
2018-05-18T02:00:45.264Z,72.60
2018-05-18T02:01:18.539Z,72.70
2018-05-18T02:01:51.900Z,72.60
2018-05-18T02:02:25.175Z,72.50
2018-05-18T02:02:58.459Z,72.50
2018-05-18T02:03:31.736Z,72.60
2018-05-18T02:04:05.002Z,72.70
2018-05-18T02:04:38.277Z,72.80
2018-05-18T02:05:12.308Z,72.80
2018-05-18T02:05:45.592Z,72.80
2018-05-18T02:06:18.856Z,72.70
2018-05-18T02:06:52.133Z,72.70
2018-05-18T02:07:25.392Z,72.70
2018-05-18T02:07:59.428Z,72.70
2018-05-18T02:08:32.687Z,72.60
2018-05-18T02:09:06.737Z,72.90
2018-05-18T02:09:40.011Z,72.90
2018-05-18T02:10:13.292Z,73.00
2018-05-18T02:10:46.552Z,73.00
2018-05-18T02:11:20.815Z,73.00
2018-05-18T02:11:54.039Z,73.00
2018-05-18T02:12:27.307Z,73.00
2018-05-18T02:13:00.588Z,72.90
2018-05-18T02:13:33.857Z,73.00
2018-05-18T02:14:07.125Z,73.10
2018-05-18T02:14:40.396Z,73.00
2018-05-18T02:15:13.665Z,73.20
2018-05-18T02:15:47.738Z,73.30
2018-05-18T02:16:21.013Z,73.30
2018-05-18T02:16:54.279Z,73.40
2018-05-18T02:17:27.560Z,73.30
2018-05-18T02:18:00.853Z,73.40
2018-05-18T02:18:34.134Z,73.50
2018-05-18T02:19:07.405Z,73.40
2018-05-18T02:19:40.677Z,73.50
2018-05-18T02:20:13.951Z,73.40
2018-05-18T02:20:47.221Z,73.40
2018-05-18T02:21:20.500Z,73.40
2018-05-18T02:21:53.777Z,73.40
2018-05-18T02:22:27.036Z,73.50
2018-05-18T02:23:00.329Z,73.40
2018-05-18T02:23:33.617Z,73.40
2018-05-18T02:24:06.885Z,73.40
2018-05-18T02:24:40.156Z,73.40
2018-05-18T02:25:13.428Z,73.50
2018-05-18T02:25:46.688Z,73.50
2018-05-18T02:26:19.975Z,73.60
2018-05-18T02:26:53.525Z,73.70
2018-05-18T02:27:26.794Z,73.60
2018-05-18T02:28:00.850Z,73.60
2018-05-18T02:28:34.881Z,73.70
2018-05-18T02:29:08.151Z,73.70
2018-05-18T02:29:41.430Z,73.90
2018-05-18T02:30:14.706Z,73.70
2018-05-18T02:30:47.965Z,73.80
2018-05-18T02:31:21.993Z,74.00
2018-05-18T02:31:55.254Z,74.00
2018-05-18T02:32:28.530Z,74.10
2018-05-18T02:33:02.594Z,74.10
2018-05-18T02:33:35.861Z,74.10
2018-05-18T02:34:09.144Z,74.10
2018-05-18T02:34:42.417Z,74.30
2018-05-18T02:35:16.445Z,74.50
2018-05-18T02:35:49.713Z,74.30
2018-05-18T02:36:22.981Z,74.20
2018-05-18T02:36:57.020Z,74.30
2018-05-18T02:37:31.060Z,74.30
2018-05-18T02:38:04.346Z,74.30
2018-05-18T02:38:37.623Z,74.50
2018-05-18T02:39:10.889Z,74.60
2018-05-18T02:39:44.171Z,74.80
2018-05-18T02:40:17.427Z,74.70
2018-05-18T02:40:50.702Z,74.70
2018-05-18T02:41:24.732Z,74.70
2018-05-18T02:41:57.989Z,74.60
2018-05-18T02:42:31.249Z,74.80
2018-05-18T02:43:05.302Z,74.60
2018-05-18T02:43:39.332Z,74.60
2018-05-18T02:44:12.610Z,74.70
2018-05-18T02:44:45.884Z,74.50
2018-05-18T02:45:19.160Z,74.60
2018-05-18T02:45:52.437Z,74.70
2018-05-18T02:46:25.688Z,74.80
2018-05-18T02:46:58.961Z,74.80
2018-05-18T02:47:32.224Z,74.70
2018-05-18T02:48:05.496Z,74.80
2018-05-18T02:48:38.777Z,74.80
2018-05-18T02:49:12.052Z,74.60
2018-05-18T02:49:46.101Z,74.90
2018-05-18T02:50:19.376Z,75.00
2018-05-18T02:50:53.414Z,74.90
2018-05-18T02:51:26.685Z,74.90
2018-05-18T02:51:59.949Z,74.80
2018-05-18T02:52:33.229Z,75.00
2018-05-18T02:53:06.532Z,75.00
2018-05-18T02:53:39.803Z,74.90
2018-05-18T02:54:13.082Z,75.20
2018-05-18T02:54:46.336Z,75.10
2018-05-18T02:55:19.607Z,75.20
2018-05-18T02:55:52.874Z,75.30
2018-05-18T02:56:26.137Z,75.30
2018-05-18T02:56:59.420Z,75.30
2018-05-18T02:57:32.692Z,75.20
2018-05-18T02:58:06.729Z,75.00
2018-05-18T02:58:40.007Z,75.00
2018-05-18T02:59:13.294Z,75.20
2018-05-18T02:59:46.572Z,75.40
2018-05-18T03:00:19.837Z,75.40
2018-05-18T03:00:53.120Z,75.30
2018-05-18T03:01:26.390Z,75.50
2018-05-18T03:01:59.656Z,75.60
2018-05-18T03:02:32.941Z,75.60
2018-05-18T03:03:06.965Z,75.50
2018-05-18T03:03:40.252Z,75.50
2018-05-18T03:04:13.521Z,75.70
2018-05-18T03:04:46.785Z,75.70
2018-05-18T03:05:20.064Z,75.60
2018-05-18T03:05:53.344Z,75.70
2018-05-18T03:06:26.616Z,75.70
2018-05-18T03:06:59.884Z,75.80
2018-05-18T03:07:33.925Z,76.70
2018-05-18T03:08:07.189Z,75.80
2018-05-18T03:08:40.464Z,75.60
2018-05-18T03:09:13.745Z,75.70
2018-05-18T03:09:47.017Z,75.80
2018-05-18T03:10:20.288Z,75.90
2018-05-18T03:10:53.558Z,75.90
2018-05-18T03:11:27.581Z,75.90
2018-05-18T03:12:00.841Z,75.80
2018-05-18T03:12:34.116Z,75.80
2018-05-18T03:13:08.135Z,75.90
2018-05-18T03:13:41.425Z,75.90
2018-05-18T03:14:14.706Z,76.00
2018-05-18T03:14:47.965Z,75.90
2018-05-18T03:15:21.263Z,76.00
2018-05-18T03:15:54.553Z,76.00
2018-05-18T03:16:27.821Z,76.00
2018-05-18T03:17:01.103Z,75.90
2018-05-18T03:17:34.385Z,76.10
2018-05-18T03:18:07.664Z,76.20
2018-05-18T03:18:40.944Z,76.30
2018-05-18T03:19:14.228Z,76.20
2018-05-18T03:19:47.485Z,76.00
2018-05-18T03:20:21.515Z,76.10
2018-05-18T03:20:54.795Z,76.00
2018-05-18T03:21:28.067Z,76.00
2018-05-18T03:22:01.339Z,76.00
2018-05-18T03:22:34.613Z,75.90
2018-05-18T03:23:07.887Z,77.00
2018-05-18T03:23:41.160Z,76.30
2018-05-18T03:24:15.222Z,76.10
2018-05-18T03:24:48.483Z,76.10
2018-05-18T03:25:21.768Z,76.20
2018-05-18T03:25:55.037Z,76.20
2018-05-18T03:26:28.302Z,76.10
2018-05-18T03:27:01.584Z,76.10
2018-05-18T03:27:34.840Z,76.00
2018-05-18T03:28:08.873Z,76.40
2018-05-18T03:28:42.148Z,76.30
2018-05-18T03:29:15.414Z,76.50
2018-05-18T03:29:48.688Z,76.50
2018-05-18T03:30:21.965Z,76.50
2018-05-18T03:30:55.244Z,76.50
2018-05-18T03:31:28.509Z,76.40
2018-05-18T03:32:02.536Z,76.60
2018-05-18T03:32:35.805Z,76.60
2018-05-18T03:33:09.087Z,76.60
2018-05-18T03:33:42.376Z,76.40
2018-05-18T03:34:15.655Z,76.50
2018-05-18T03:34:48.917Z,76.70
2018-05-18T03:35:22.957Z,76.80
2018-05-18T03:35:56.222Z,76.80
2018-05-18T03:36:29.508Z,76.90
2018-05-18T03:37:02.776Z,76.80
2018-05-18T03:37:36.037Z,76.90
2018-05-18T03:38:09.316Z,76.90
2018-05-18T03:38:43.364Z,77.00
2018-05-18T03:39:16.623Z,76.80
2018-05-18T03:39:49.891Z,76.70
2018-05-18T03:40:23.177Z,76.80
2018-05-18T03:40:56.453Z,76.80
2018-05-18T03:41:29.723Z,76.70
2018-05-18T03:42:02.989Z,76.80
2018-05-18T03:42:37.027Z,76.90
2018-05-18T03:43:10.309Z,76.80
2018-05-18T03:43:43.598Z,77.10
2018-05-18T03:44:16.877Z,77.10
2018-05-18T03:44:50.478Z,77.20
2018-05-18T03:45:23.776Z,77.20
2018-05-18T03:45:57.042Z,77.30
2018-05-18T03:46:30.300Z,77.40
2018-05-18T03:47:03.593Z,77.30
2018-05-18T03:47:36.868Z,77.20
2018-05-18T03:48:10.151Z,77.30
2018-05-18T03:48:43.413Z,77.30
2018-05-18T03:49:16.696Z,77.40
2018-05-18T03:49:49.984Z,77.40
2018-05-18T03:50:23.257Z,77.40
2018-05-18T03:50:56.523Z,77.70
2018-05-18T03:51:29.790Z,77.80
2018-05-18T03:52:03.065Z,77.80
2018-05-18T03:52:36.329Z,77.80
2018-05-18T03:53:09.629Z,77.80
2018-05-18T03:53:42.907Z,77.80
2018-05-18T03:54:16.188Z,77.80
2018-05-18T03:54:49.468Z,77.90
2018-05-18T03:55:22.745Z,78.00
2018-05-18T03:55:56.776Z,78.00
2018-05-18T03:56:30.045Z,78.00
2018-05-18T03:57:03.317Z,78.00
2018-05-18T03:57:36.598Z,77.90
2018-05-18T03:58:09.893Z,77.90
2018-05-18T03:58:43.157Z,78.10
2018-05-18T03:59:16.440Z,78.20
2018-05-18T03:59:49.721Z,78.30
2018-05-18T04:00:22.992Z,78.30
2018-05-18T04:00:56.275Z,78.20
2018-05-18T04:01:41.452Z,78.10
2018-05-18T04:02:26.722Z,78.20
2018-05-18T04:03:23.612Z,78.10
2018-05-18T04:04:09.527Z,78.20
2018-05-18T04:04:54.549Z,78.10
2018-05-18T04:05:40.387Z,78.30
2018-05-18T04:06:25.584Z,78.20
2018-05-18T04:07:11.521Z,78.50
2018-05-18T04:07:56.550Z,78.30
2018-05-18T04:08:52.260Z,78.40
2018-05-18T04:09:25.577Z,78.50
2018-05-18T04:09:58.825Z,78.60
2018-05-18T04:10:32.096Z,78.60
2018-05-18T04:11:05.385Z,78.80
2018-05-18T04:11:38.655Z,78.80
2018-05-18T04:12:11.932Z,78.80
2018-05-18T04:12:45.218Z,78.90
2018-05-18T04:13:18.485Z,78.90
2018-05-18T04:13:51.747Z,79.00
2018-05-18T04:14:25.043Z,79.00
2018-05-18T04:14:58.316Z,79.10
2018-05-18T04:15:31.634Z,79.10
2018-05-18T04:16:04.893Z,79.00
2018-05-18T04:16:38.159Z,79.00
2018-05-18T04:17:11.432Z,79.10
2018-05-18T04:17:44.704Z,79.00
2018-05-18T04:18:17.984Z,79.00
2018-05-18T04:18:52.029Z,78.90
2018-05-18T04:19:25.324Z,78.90
2018-05-18T04:19:58.604Z,79.00
2018-05-18T04:20:32.176Z,79.00
2018-05-18T04:21:05.465Z,79.00
2018-05-18T04:21:38.736Z,79.10
2018-05-18T04:22:12.013Z,78.90
2018-05-18T04:22:46.060Z,79.70
2018-05-18T04:23:20.088Z,78.90
2018-05-18T04:23:53.360Z,78.90
2018-05-18T04:24:26.645Z,79.00
2018-05-18T04:24:59.935Z,79.00
2018-05-18T04:25:33.201Z,79.90
2018-05-18T04:26:06.464Z,79.20
2018-05-18T04:26:39.740Z,79.00
2018-05-18T04:27:13.768Z,79.10
2018-05-18T04:27:47.059Z,79.10
2018-05-18T04:28:20.533Z,79.00
2018-05-18T04:28:53.817Z,79.00
2018-05-18T04:29:27.103Z,79.10
2018-05-18T04:30:00.443Z,79.20
2018-05-18T04:30:33.693Z,79.20
2018-05-18T04:31:06.995Z,79.20
2018-05-18T04:31:41.043Z,79.40
2018-05-18T04:32:14.308Z,79.20
2018-05-18T04:32:47.584Z,79.30
2018-05-18T04:33:20.868Z,79.20
2018-05-18T04:33:54.161Z,79.30
2018-05-18T04:34:27.436Z,79.40
2018-05-18T04:35:00.738Z,79.40
2018-05-18T04:35:34.768Z,79.50
2018-05-18T04:36:08.805Z,79.50
2018-05-18T04:36:42.074Z,79.50
2018-05-18T04:37:15.353Z,79.30
2018-05-18T04:37:48.628Z,79.50
2018-05-18T04:38:22.667Z,79.30
2018-05-18T04:38:55.967Z,79.30
2018-05-18T04:39:29.248Z,79.40
2018-05-18T04:40:02.573Z,79.40
2018-05-18T04:40:37.490Z,79.30
2018-05-18T04:41:10.761Z,79.30
2018-05-18T04:41:44.797Z,79.80
2018-05-18T04:42:18.064Z,79.80
2018-05-18T04:42:51.340Z,79.50
2018-05-18T04:43:24.639Z,79.60
2018-05-18T04:43:57.921Z,79.80
2018-05-18T04:44:31.207Z,79.80
2018-05-18T04:45:04.513Z,79.80
2018-05-18T04:45:37.788Z,79.70
2018-05-18T04:46:11.089Z,79.60
2018-05-18T04:46:44.372Z,79.60
2018-05-18T04:47:18.410Z,79.60
2018-05-18T04:47:51.680Z,79.60
2018-05-18T04:48:24.970Z,79.60
2018-05-18T04:48:58.245Z,79.60
2018-05-18T04:49:31.529Z,79.70
2018-05-18T04:50:04.804Z,79.70
2018-05-18T04:50:38.105Z,79.90
2018-05-18T04:51:11.385Z,79.90
2018-05-18T04:51:44.661Z,80.00
2018-05-18T04:52:17.940Z,80.00
2018-05-18T04:52:51.216Z,80.00
2018-05-18T04:53:24.499Z,80.00
2018-05-18T04:53:57.793Z,80.00
2018-05-18T04:54:31.144Z,80.50
2018-05-18T04:55:04.456Z,80.80
2018-05-18T04:55:38.534Z,81.10
2018-05-18T04:56:11.812Z,81.10
2018-05-18T04:56:45.092Z,80.80
2018-05-18T04:57:18.354Z,80.90
2018-05-18T04:57:51.625Z,80.90
2018-05-18T04:58:24.909Z,81.10
2018-05-18T04:58:58.987Z,80.80
2018-05-18T04:59:32.257Z,80.70
2018-05-18T05:00:05.556Z,80.70
2018-05-18T05:00:39.592Z,80.40
2018-05-18T05:01:12.871Z,80.30
2018-05-18T05:01:46.165Z,80.40
2018-05-18T05:02:19.456Z,80.40
2018-05-18T05:02:53.054Z,80.30
2018-05-18T05:03:26.336Z,80.10
2018-05-18T05:03:59.621Z,80.00
2018-05-18T05:04:32.914Z,80.00
2018-05-18T05:05:06.187Z,80.00
2018-05-18T05:05:39.453Z,80.00
2018-05-18T05:06:12.716Z,80.00
2018-05-18T05:06:46.783Z,80.20
2018-05-18T05:07:20.056Z,80.20
2018-05-18T05:07:53.359Z,81.10
2018-05-18T05:08:26.654Z,80.30
2018-05-18T05:08:59.924Z,80.20
2018-05-18T05:09:33.192Z,80.00
2018-05-18T05:10:06.513Z,79.90
2018-05-18T05:10:39.772Z,79.80
2018-05-18T05:11:13.817Z,79.60
2018-05-18T05:11:47.868Z,79.40
2018-05-18T05:12:21.169Z,79.40
2018-05-18T05:12:54.436Z,79.60
2018-05-18T05:13:27.713Z,79.70
2018-05-18T05:14:01.773Z,79.80
2018-05-18T05:14:35.814Z,79.70
2018-05-18T05:15:09.107Z,79.70
2018-05-18T05:15:43.876Z,79.50
2018-05-18T05:16:17.149Z,79.50
2018-05-18T05:16:50.420Z,79.60
2018-05-18T05:17:23.693Z,79.60
2018-05-18T05:17:57.740Z,79.40
2018-05-18T05:18:31.013Z,79.40
2018-05-18T05:19:04.284Z,79.30
2018-05-18T05:19:37.583Z,79.30
2018-05-18T05:20:10.888Z,79.10
2018-05-18T05:20:44.173Z,79.20
2018-05-18T05:21:17.461Z,79.20
2018-05-18T05:21:50.745Z,79.00
2018-05-18T05:22:24.029Z,78.90
2018-05-18T05:22:57.306Z,79.10
2018-05-18T05:23:31.357Z,79.00
2018-05-18T05:24:04.628Z,79.00
2018-05-18T05:24:37.889Z,79.00
2018-05-18T05:25:11.181Z,78.90
2018-05-18T05:25:44.447Z,78.90
2018-05-18T05:26:17.718Z,79.00
2018-05-18T05:26:51.755Z,79.10
2018-05-18T05:27:25.024Z,79.00
2018-05-18T05:27:58.290Z,78.90
2018-05-18T05:28:31.573Z,79.00
2018-05-18T05:29:04.840Z,78.90
2018-05-18T05:29:38.109Z,78.80
2018-05-18T05:30:12.169Z,78.70
2018-05-18T05:30:45.514Z,78.70
2018-05-18T05:31:18.793Z,78.50
2018-05-18T05:31:52.064Z,78.60
2018-05-18T05:32:25.324Z,78.70
2018-05-18T05:32:58.590Z,78.90
2018-05-18T05:33:31.864Z,78.90
2018-05-18T05:34:05.136Z,78.80
2018-05-18T05:34:38.409Z,79.00
2018-05-18T05:35:11.687Z,78.70
2018-05-18T05:35:44.984Z,78.70
2018-05-18T05:36:18.268Z,78.70
2018-05-18T05:36:51.533Z,78.50
2018-05-18T05:37:25.576Z,78.30
2018-05-18T05:37:59.620Z,78.20
2018-05-18T05:38:33.656Z,78.40
2018-05-18T05:39:07.697Z,78.70
2018-05-18T05:39:40.965Z,78.40
2018-05-18T05:40:14.341Z,78.50
2018-05-18T05:40:47.637Z,78.50
2018-05-18T05:41:20.922Z,78.40
2018-05-18T05:41:54.200Z,78.30
2018-05-18T05:42:27.473Z,78.40
2018-05-18T05:43:00.741Z,78.60
2018-05-18T05:43:34.782Z,78.60
2018-05-18T05:44:08.053Z,78.60
2018-05-18T05:44:41.555Z,78.60
2018-05-18T05:45:14.839Z,78.50
2018-05-18T05:45:48.129Z,78.60
2018-05-18T05:46:21.404Z,78.60
2018-05-18T05:46:54.734Z,78.50
2018-05-18T05:47:27.964Z,78.60
2018-05-18T05:48:01.248Z,78.50
2018-05-18T05:48:34.556Z,78.40
2018-05-18T05:49:07.820Z,78.40
2018-05-18T05:49:41.093Z,78.10
2018-05-18T05:50:14.364Z,78.30
2018-05-18T05:50:47.654Z,78.30
2018-05-18T05:51:20.927Z,78.30
2018-05-18T05:51:54.378Z,78.30
2018-05-18T05:52:27.639Z,79.10
2018-05-18T05:53:00.922Z,78.20
2018-05-18T05:53:34.208Z,78.30
2018-05-18T05:54:07.481Z,78.20
2018-05-18T05:54:40.771Z,78.50
2018-05-18T05:55:14.061Z,78.30
2018-05-18T05:55:47.373Z,78.20
2018-05-18T05:56:20.653Z,78.00
2018-05-18T05:56:53.932Z,78.00
2018-05-18T05:57:27.205Z,77.80
2018-05-18T05:58:00.484Z,77.80
2018-05-18T05:58:33.948Z,77.80
2018-05-18T05:59:07.048Z,78.00
2018-05-18T05:59:40.316Z,78.00
2018-05-18T06:00:13.600Z,77.90
2018-05-18T06:00:46.883Z,78.10
2018-05-18T06:01:20.177Z,78.00
2018-05-18T06:01:53.457Z,78.00
2018-05-18T06:02:26.737Z,77.80
2018-05-18T06:03:00.019Z,77.80
2018-05-18T06:03:33.300Z,77.80
2018-05-18T06:04:06.587Z,77.90
2018-05-18T06:04:39.857Z,77.90
2018-05-18T06:05:13.128Z,77.70
2018-05-18T06:05:46.432Z,77.70
2018-05-18T06:06:19.732Z,77.90
2018-05-18T06:06:53.768Z,77.70
2018-05-18T06:07:27.048Z,77.70
2018-05-18T06:08:00.328Z,77.50
2018-05-18T06:08:33.600Z,77.50
2018-05-18T06:09:06.891Z,77.40
2018-05-18T06:09:40.161Z,77.30
2018-05-18T06:10:13.428Z,77.70
2018-05-18T06:10:46.712Z,77.40
2018-05-18T06:11:20.000Z,77.80
2018-05-18T06:11:53.289Z,77.70
2018-05-18T06:12:26.565Z,77.60
2018-05-18T06:12:59.836Z,77.50
2018-05-18T06:13:33.113Z,77.50
2018-05-18T06:14:06.384Z,77.30
2018-05-18T06:14:39.677Z,77.50
2018-05-18T06:15:12.947Z,77.40
2018-05-18T06:15:46.227Z,77.30
2018-05-18T06:16:19.525Z,77.30
2018-05-18T06:16:52.803Z,77.20
2018-05-18T06:17:26.082Z,77.10
2018-05-18T06:17:59.360Z,77.20
2018-05-18T06:18:32.634Z,77.00
2018-05-18T06:19:05.901Z,76.80
2018-05-18T06:19:39.173Z,76.70
2018-05-18T06:20:12.478Z,76.70
2018-05-18T06:20:45.756Z,76.70
2018-05-18T06:21:19.044Z,76.50
2018-05-18T06:21:52.367Z,76.50
2018-05-18T06:22:25.640Z,76.20
2018-05-18T06:22:58.921Z,76.20
2018-05-18T06:23:32.205Z,76.20
2018-05-18T06:24:05.471Z,76.30
2018-05-18T06:24:38.760Z,76.50
2018-05-18T06:25:12.024Z,76.60
2018-05-18T06:25:45.298Z,76.50
2018-05-18T06:26:18.592Z,76.60
2018-05-18T06:26:51.876Z,76.40
2018-05-18T06:27:25.213Z,76.20
2018-05-18T06:27:58.488Z,76.30
2018-05-18T06:28:31.767Z,76.70
2018-05-18T06:29:05.806Z,76.80
2018-05-18T06:29:39.071Z,76.70
2018-05-18T06:30:12.340Z,76.70
2018-05-18T06:30:45.622Z,76.70
2018-05-18T06:31:18.916Z,76.60
2018-05-18T06:31:53.109Z,76.70
2018-05-18T06:32:26.401Z,76.60
2018-05-18T06:32:59.672Z,76.70
2018-05-18T06:33:32.983Z,76.80
2018-05-18T06:34:06.219Z,76.70
2018-05-18T06:34:39.512Z,76.70
2018-05-18T06:35:13.083Z,76.70
2018-05-18T06:35:46.301Z,76.70
2018-05-18T06:36:19.597Z,76.80
2018-05-18T06:36:53.639Z,77.60
2018-05-18T06:37:26.908Z,77.50
2018-05-18T06:38:00.960Z,78.20
2018-05-18T06:38:34.232Z,78.30
2018-05-18T06:39:08.280Z,78.00
2018-05-18T06:39:42.333Z,77.40
2018-05-18T06:40:15.613Z,77.40
2018-05-18T06:40:48.897Z,77.10
2018-05-18T06:41:23.053Z,76.90
2018-05-18T06:41:56.319Z,76.90
2018-05-18T06:42:29.594Z,76.80
2018-05-18T06:43:03.629Z,76.80
2018-05-18T06:43:36.916Z,76.80
2018-05-18T06:44:10.189Z,76.80
2018-05-18T06:44:43.467Z,76.70
2018-05-18T06:45:16.742Z,77.20
2018-05-18T06:45:50.015Z,77.10
2018-05-18T06:46:23.304Z,77.30
2018-05-18T06:46:56.578Z,76.90
2018-05-18T06:47:29.873Z,76.60
2018-05-18T06:48:03.141Z,76.60
2018-05-18T06:48:36.412Z,76.50
2018-05-18T06:49:09.679Z,76.30
2018-05-18T06:49:42.972Z,76.20
2018-05-18T06:50:16.248Z,76.10
2018-05-18T06:50:50.309Z,76.60
2018-05-18T06:51:23.589Z,76.60
2018-05-18T06:51:56.889Z,76.30
2018-05-18T06:52:31.016Z,75.70
2018-05-18T06:53:04.196Z,75.70
2018-05-18T06:53:37.471Z,75.80
2018-05-18T06:54:10.752Z,75.70
2018-05-18T06:54:44.028Z,75.60
2018-05-18T06:55:17.299Z,75.50
2018-05-18T06:55:50.573Z,75.60
2018-05-18T06:56:24.615Z,75.90
2018-05-18T06:56:57.898Z,75.90
2018-05-18T06:57:31.189Z,75.90
2018-05-18T06:58:04.456Z,76.10
2018-05-18T06:58:37.731Z,76.30
2018-05-18T06:59:11.016Z,76.00
2018-05-18T06:59:44.300Z,75.80
2018-05-18T07:00:17.593Z,75.90
2018-05-18T07:00:51.640Z,75.80
2018-05-18T07:01:24.921Z,75.80
2018-05-18T07:01:58.208Z,75.50
2018-05-18T07:02:31.482Z,75.50
2018-05-18T07:03:05.520Z,75.40
2018-05-18T07:03:38.801Z,75.30
2018-05-18T07:04:12.077Z,75.20
2018-05-18T07:04:45.353Z,75.30
2018-05-18T07:05:19.418Z,75.10
2018-05-18T07:05:52.692Z,75.10
2018-05-18T07:06:25.970Z,74.80
2018-05-18T07:06:59.255Z,75.30
2018-05-18T07:07:32.531Z,74.80
2018-05-18T07:08:06.588Z,74.60
2018-05-18T07:08:39.855Z,74.60
2018-05-18T07:09:13.129Z,74.30
2018-05-18T07:09:46.442Z,74.10
2018-05-18T07:10:19.718Z,74.10
2018-05-18T07:10:53.000Z,74.30
2018-05-18T07:11:26.266Z,74.40
2018-05-18T07:11:59.564Z,74.30
2018-05-18T07:12:32.847Z,74.00